Time;durP1;ratioP1;P1;durP2;ratioP2;P2;SDS_P1;SDS_P2;PMS_P1;PMS_P2;Temp;Humidity;BMP_temperature;BMP_pressure;BME280_temperature;BME280_humidity;BME280_pressure;Samples;Min_cycle;Max_cycle;Signal;HPM_P1;HPM_P2
2021/07/08 00:01:44;;;;;;;4.25;2.77;;;;;;;18.63;74.87;96990.87;1654561;85;20951;-81
2021/07/08 00:04:10;;;;;;;5.00;2.72;;;;;;;18.58;74.97;97002.86;1623479;85;20926;-81
2021/07/08 00:06:37;;;;;;;4.35;2.90;;;;;;;18.56;75.13;97009.37;1655997;85;21372;-81
2021/07/08 00:09:07;;;;;;;4.95;2.52;;;;;;;18.55;75.21;97005.13;1656719;87;20920;-81
2021/07/08 00:11:33;;;;;;;3.85;2.20;;;;;;;18.53;75.18;97001.37;1626219;85;21028;-81
2021/07/08 00:13:59;;;;;;;2.92;2.37;;;;;;;18.53;75.21;97009.77;1634426;85;21017;-81
2021/07/08 00:16:25;;;;;;;3.75;2.72;;;;;;;18.52;75.35;97006.85;1653962;85;21047;-81
2021/07/08 00:18:52;;;;;;;4.03;2.72;;;;;;;18.48;75.42;97003.85;1633906;85;20983;-81
2021/07/08 00:21:20;;;;;;;3.83;2.77;;;;;;;18.45;75.41;97008.75;1644495;86;21021;-81
2021/07/08 00:23:45;;;;;;;3.00;2.65;;;;;;;18.44;75.42;97014.52;1645960;86;21011;-81
2021/07/08 00:26:11;;;;;;;4.17;2.42;;;;;;;18.43;75.40;97018.69;1630920;85;21085;-81
2021/07/08 00:28:37;;;;;;;4.87;2.70;;;;;;;18.41;75.41;97019.42;1612566;87;21366;-81
2021/07/08 00:31:03;;;;;;;4.65;3.27;;;;;;;18.38;75.53;97019.31;1640567;86;20977;-81
2021/07/08 00:33:29;;;;;;;4.65;2.87;;;;;;;18.36;75.58;97020.55;1638126;86;21027;-81
2021/07/08 00:35:54;;;;;;;4.45;3.33;;;;;;;18.33;75.71;97022.30;1641078;86;21033;-81
2021/07/08 00:38:20;;;;;;;3.87;3.02;;;;;;;18.33;75.81;97027.56;1639056;86;21004;-81
2021/07/08 00:40:46;;;;;;;4.62;2.92;;;;;;;18.31;75.73;97019.89;1599441;87;21019;-81
2021/07/08 00:43:12;;;;;;;6.87;2.80;;;;;;;18.28;75.75;97022.95;1634388;86;20997;-80
2021/07/08 00:45:38;;;;;;;3.50;2.60;;;;;;;18.25;75.91;97028.14;1638824;86;21267;-81
2021/07/08 00:48:04;;;;;;;3.35;2.75;;;;;;;18.22;75.94;97025.94;1640904;86;21017;-81
2021/07/08 00:50:34;;;;;;;4.62;2.67;;;;;;;18.18;76.05;97017.35;1641441;86;20964;-81
2021/07/08 00:53:01;;;;;;;4.25;2.60;;;;;;;18.15;76.02;97021.73;1626137;86;21006;-81
2021/07/08 00:55:27;;;;;;;4.58;3.25;;;;;;;18.13;76.10;97021.14;1633746;86;21041;-81
2021/07/08 00:57:53;;;;;;;4.60;2.72;;;;;;;18.12;76.10;97022.97;1641412;86;21013;-81
2021/07/08 01:00:32;;;;;;;3.22;2.83;;;;;;;18.11;75.99;97024.50;1623764;87;21051;-81
2021/07/08 01:02:57;;;;;;;4.00;3.02;;;;;;;18.08;76.10;97023.11;1610965;87;21032;-81
2021/07/08 01:05:32;;;;;;;4.60;3.30;;;;;;;18.05;76.15;97024.02;1614749;87;21313;-81
2021/07/08 01:08:00;;;;;;;4.55;3.10;;;;;;;17.98;76.21;97015.68;1622449;87;21432;-81
2021/07/08 01:10:25;;;;;;;4.05;2.83;;;;;;;17.96;76.29;97024.80;1624917;87;20987;-81
2021/07/08 01:12:51;;;;;;;5.22;3.67;;;;;;;17.97;76.46;97027.73;1635560;86;21007;-80
2021/07/08 01:15:17;;;;;;;3.25;2.95;;;;;;;18.01;76.50;97028.91;1651210;85;21348;-81
2021/07/08 01:17:46;;;;;;;4.90;3.58;;;;;;;18.03;76.46;97031.31;1662361;85;21283;-78
2021/07/08 01:20:14;;;;;;;3.45;3.10;;;;;;;18.02;76.43;97033.14;1610502;87;21033;-78
2021/07/08 01:22:41;;;;;;;5.15;3.02;;;;;;;17.98;76.56;97030.14;1652942;85;21361;-79
2021/07/08 01:25:09;;;;;;;5.60;3.42;;;;;;;17.96;76.66;97030.86;1633599;88;21007;-78
2021/07/08 01:27:35;;;;;;;4.22;3.20;;;;;;;17.96;76.66;97036.63;1647957;86;20977;-78
2021/07/08 01:30:01;;;;;;;4.80;3.05;;;;;;;17.94;76.66;97030.27;1613254;86;21331;-79
2021/07/08 01:32:27;;;;;;;5.80;3.08;;;;;;;17.93;76.63;97029.17;1615634;86;20992;-79
2021/07/08 01:34:52;;;;;;;3.65;3.10;;;;;;;17.93;76.63;97033.92;1615087;86;20964;-79
2021/07/08 01:37:18;;;;;;;7.00;3.12;;;;;;;17.91;76.58;97046.48;1608783;86;20983;-79
2021/07/08 01:39:45;;;;;;;4.65;3.25;;;;;;;17.89;76.65;97040.59;1633812;86;20996;-79
2021/07/08 01:42:12;;;;;;;6.70;3.05;;;;;;;17.89;76.75;97041.11;1616197;86;21007;-79
2021/07/08 01:44:37;;;;;;;4.35;3.25;;;;;;;17.86;76.72;97044.17;1641160;86;20938;-79
2021/07/08 01:47:04;;;;;;;5.47;3.20;;;;;;;17.83;76.76;97044.08;1640359;86;21015;-78
2021/07/08 01:49:29;;;;;;;4.25;2.42;;;;;;;17.85;76.82;97045.19;1638462;86;21283;-79
2021/07/08 01:51:55;;;;;;;4.05;3.20;;;;;;;17.85;76.86;97046.50;1625816;88;20954;-78
2021/07/08 01:54:21;;;;;;;6.03;3.00;;;;;;;17.86;76.92;97053.37;1636516;86;20953;-79
2021/07/08 01:56:47;;;;;;;5.83;3.50;;;;;;;17.86;76.95;97050.23;1657839;86;21070;-78
2021/07/08 01:59:14;;;;;;;3.42;2.60;;;;;;;17.90;77.36;97054.58;1639066;87;21067;-78
2021/07/08 02:01:41;;;;;;;4.97;2.77;;;;;;;17.90;77.18;97046.19;1645292;86;20997;-78
2021/07/08 02:04:07;;;;;;;4.55;3.85;;;;;;;17.95;77.17;97050.28;1638231;86;21299;-78
2021/07/08 02:06:32;;;;;;;5.40;3.83;;;;;;;18.04;77.14;97046.08;1649028;86;20911;-78
2021/07/08 02:08:59;;;;;;;4.95;4.15;;;;;;;18.07;77.03;97041.73;1630211;86;21068;-79
2021/07/08 02:11:25;;;;;;;6.10;4.05;;;;;;;18.09;76.99;97044.95;1630872;88;21325;-79
2021/07/08 02:13:51;;;;;;;6.22;4.12;;;;;;;18.10;76.89;97051.31;1610404;86;20956;-79
2021/07/08 02:16:17;;;;;;;5.85;4.35;;;;;;;18.10;76.78;97058.39;1611821;87;20941;-78
2021/07/08 02:18:43;;;;;;;6.35;4.47;;;;;;;18.11;76.82;97052.92;1600395;88;21972;-79
2021/07/08 02:21:10;;;;;;;5.87;4.35;;;;;;;18.13;76.76;97052.70;1625103;86;20971;-78
2021/07/08 02:23:36;;;;;;;6.22;4.55;;;;;;;18.14;76.72;97053.00;1650636;86;21015;-78
2021/07/08 02:26:06;;;;;;;5.15;4.17;;;;;;;18.13;76.56;97051.39;1671648;84;20943;-78
2021/07/08 02:28:33;;;;;;;5.05;3.70;;;;;;;18.09;76.59;97058.91;1635142;86;20985;-79
2021/07/08 02:30:58;;;;;;;8.88;4.15;;;;;;;18.05;76.57;97063.46;1645699;86;20935;-78
2021/07/08 02:33:25;;;;;;;4.83;3.77;;;;;;;18.07;76.61;97063.58;1654204;85;20920;-79
2021/07/08 02:35:51;;;;;;;6.45;4.00;;;;;;;18.12;76.56;97058.47;1641756;85;20961;-79
2021/07/08 02:38:17;;;;;;;4.10;3.70;;;;;;;18.13;76.42;97057.45;1672900;85;20943;-79
2021/07/08 02:40:43;;;;;;;4.53;3.65;;;;;;;18.16;76.40;97066.23;1643205;85;21019;-78
2021/07/08 02:43:10;;;;;;;5.67;4.08;;;;;;;18.15;76.36;97069.88;1674094;85;20947;-78
2021/07/08 02:45:38;;;;;;;6.70;4.53;;;;;;;18.13;76.35;97067.17;1645795;85;20971;-78
2021/07/08 02:48:07;;;;;;;6.33;4.47;;;;;;;18.13;76.42;97068.48;1663188;85;20973;-78
2021/07/08 02:50:33;;;;;;;6.65;3.42;;;;;;;18.13;76.34;97065.85;1649169;85;21250;-78
2021/07/08 02:52:59;;;;;;;5.20;3.77;;;;;;;18.14;76.41;97074.84;1649361;85;20974;-79
2021/07/08 02:55:24;;;;;;;6.20;3.87;;;;;;;18.15;76.45;97075.14;1647338;85;20968;-79
2021/07/08 02:57:50;;;;;;;7.05;4.35;;;;;;;18.15;76.41;97063.81;1661405;85;20914;-79
2021/07/08 03:00:19;;;;;;;5.75;4.40;;;;;;;18.13;76.41;97077.18;1648022;85;21021;-78
2021/07/08 03:02:45;;;;;;;7.90;5.83;;;;;;;18.11;76.34;97077.09;1640430;85;21009;-79
2021/07/08 03:05:12;;;;;;;7.33;4.42;;;;;;;18.08;76.39;97081.47;1616348;86;20936;-79
2021/07/08 03:07:38;;;;;;;4.55;4.15;;;;;;;18.04;76.51;97085.01;1646282;86;20951;-79
2021/07/08 03:10:11;;;;;;;5.35;3.95;;;;;;;18.06;76.61;97088.74;1643685;86;21053;-78
2021/07/08 03:12:36;;;;;;;4.83;4.33;;;;;;;17.99;76.30;97086.97;1648489;86;21041;-78
2021/07/08 03:15:05;;;;;;;6.00;4.58;;;;;;;17.96;76.28;97090.02;1649244;86;21088;-79
2021/07/08 03:17:31;;;;;;;6.55;4.62;;;;;;;17.94;76.17;97093.38;1675316;85;20977;-78
2021/07/08 03:19:56;;;;;;;5.12;4.62;;;;;;;17.90;76.33;97085.62;1628598;86;20980;-78
2021/07/08 03:22:22;;;;;;;4.40;4.00;;;;;;;17.85;76.37;97083.30;1661258;86;20960;-78
2021/07/08 03:24:48;;;;;;;6.72;4.40;;;;;;;17.89;76.46;97087.12;1630802;86;21734;-78
2021/07/08 03:27:14;;;;;;;6.55;4.85;;;;;;;17.91;76.43;97095.11;1632756;86;21039;-79
2021/07/08 03:29:40;;;;;;;7.05;4.78;;;;;;;17.87;76.39;97095.22;1634712;86;20904;-79
2021/07/08 03:32:07;;;;;;;6.20;5.03;;;;;;;17.88;76.55;97085.50;1663709;86;21379;-79
2021/07/08 03:34:33;;;;;;;6.30;5.42;;;;;;;17.82;76.43;97081.91;1611896;86;20984;-79
2021/07/08 03:36:59;;;;;;;5.20;4.70;;;;;;;17.88;76.62;97077.62;1641228;86;20953;-78
2021/07/08 03:39:24;;;;;;;6.85;5.00;;;;;;;17.88;76.48;97081.05;1590727;87;21290;-79
2021/07/08 03:41:50;;;;;;;9.08;6.03;;;;;;;17.95;76.52;97077.09;1610845;86;21038;-79
2021/07/08 03:44:16;;;;;;;8.38;6.12;;;;;;;17.96;76.47;97070.81;1633985;87;20939;-78
2021/07/08 03:46:42;;;;;;;6.45;5.78;;;;;;;18.00;76.50;97080.69;1626988;85;21447;-79
2021/07/08 03:49:08;;;;;;;6.47;5.72;;;;;;;18.05;76.55;97083.19;1631415;86;21032;-79
2021/07/08 03:51:33;;;;;;;7.58;6.85;;;;;;;18.13;76.45;97074.55;1610299;88;21044;-78
2021/07/08 03:53:59;;;;;;;7.92;5.85;;;;;;;18.19;76.44;97067.63;1615967;87;21366;-78
2021/07/08 03:56:25;;;;;;;7.40;6.70;;;;;;;18.27;76.20;97071.33;1625599;87;21025;-79
2021/07/08 03:58:51;;;;;;;6.87;5.87;;;;;;;18.30;76.26;97066.95;1657718;85;21345;-79
2021/07/08 04:01:17;;;;;;;6.92;6.17;;;;;;;18.32;75.99;97060.95;1613044;87;21398;-78
2021/07/08 04:03:42;;;;;;;10.15;6.87;;;;;;;18.40;75.90;97062.53;1641047;86;21007;-79
2021/07/08 04:06:08;;;;;;;9.35;7.20;;;;;;;18.42;75.77;97056.55;1611995;87;21085;-78
2021/07/08 04:08:34;;;;;;;8.53;7.40;;;;;;;18.43;75.58;97051.06;1599487;87;21096;-78
2021/07/08 04:11:00;;;;;;;9.50;7.40;;;;;;;18.48;75.62;97052.53;1632211;85;21540;-78
2021/07/08 04:13:27;;;;;;;11.35;10.25;;;;;;;18.56;75.49;97049.64;1647434;85;20969;-78
2021/07/08 04:15:53;;;;;;;11.30;10.20;;;;;;;18.59;75.27;97054.98;1669058;85;22110;-78
2021/07/08 04:18:20;;;;;;;10.40;9.35;;;;;;;18.60;75.40;97056.08;1650105;85;20948;-78
2021/07/08 04:20:45;;;;;;;9.35;6.62;;;;;;;18.63;75.39;97064.08;1634530;86;21014;-78
2021/07/08 04:23:12;;;;;;;7.25;6.35;;;;;;;18.61;75.09;97059.52;1660511;85;20991;-78
2021/07/08 04:25:39;;;;;;;8.33;7.53;;;;;;;18.61;75.09;97070.05;1670445;85;20913;-79
2021/07/08 04:28:06;;;;;;;9.28;8.43;;;;;;;18.58;75.14;97059.44;1627223;87;21014;-79
2021/07/08 04:30:32;;;;;;;8.03;7.22;;;;;;;18.62;74.97;97055.06;1640735;86;21274;-78
2021/07/08 04:32:57;;;;;;;11.83;8.25;;;;;;;18.65;75.20;97058.60;1634597;86;20978;-78
2021/07/08 04:35:30;;;;;;;7.80;7.05;;;;;;;18.68;74.93;97056.84;1630922;86;21025;-79
2021/07/08 04:37:53;;;;;;;8.53;7.72;;;;;;;18.62;74.87;97064.27;1633797;86;21019;-79
2021/07/08 04:40:19;;;;;;;8.40;7.58;;;;;;;18.62;74.97;97058.50;1647983;86;21027;-79
2021/07/08 04:42:47;;;;;;;9.48;7.05;;;;;;;18.64;75.13;97056.99;1633457;86;21061;-79
2021/07/08 04:45:13;;;;;;;10.98;8.18;;;;;;;18.56;75.41;97055.42;1635354;86;21051;-79
2021/07/08 04:47:40;;;;;;;11.48;9.10;;;;;;;18.50;75.46;97062.84;1653400;86;20972;-80
2021/07/08 04:50:09;;;;;;;10.08;9.13;;;;;;;18.47;76.10;97074.61;1619066;88;20963;-80
2021/07/08 04:52:37;;;;;;;10.45;9.33;;;;;;;18.44;76.10;97077.67;1663660;86;21283;-80
2021/07/08 04:55:04;;;;;;;11.53;9.28;;;;;;;18.43;76.43;97081.84;1641445;86;21028;-80
2021/07/08 04:57:30;;;;;;;10.25;9.05;;;;;;;18.44;76.82;97074.23;1651222;86;20975;-80
2021/07/08 04:59:56;;;;;;;11.88;9.83;;;;;;;18.46;76.93;97070.36;1634935;86;21309;-80
2021/07/08 05:02:21;;;;;;;10.82;9.68;;;;;;;18.48;77.06;97060.94;1659052;86;21001;-79
2021/07/08 05:04:47;;;;;;;10.95;9.95;;;;;;;18.47;77.15;97059.33;1585411;88;20948;-80
2021/07/08 05:07:15;;;;;;;10.55;9.50;;;;;;;18.45;77.20;97055.60;1640101;86;21031;-80
2021/07/08 05:09:41;;;;;;;9.83;8.20;;;;;;;18.44;77.10;97055.30;1635129;86;20932;-80
2021/07/08 05:12:07;;;;;;;10.15;9.15;;;;;;;18.45;77.32;97047.70;1628122;86;21439;-79
2021/07/08 05:14:34;;;;;;;10.25;9.25;;;;;;;18.49;77.38;97042.30;1632967;86;20970;-80
2021/07/08 05:17:03;;;;;;;11.08;9.98;;;;;;;18.51;77.34;97047.34;1643135;86;21017;-80
2021/07/08 05:19:30;;;;;;;10.63;9.13;;;;;;;18.52;77.35;97052.39;1629925;86;21376;-80
2021/07/08 05:21:56;;;;;;;10.35;9.25;;;;;;;18.55;77.63;97061.70;1640153;86;21215;-80
2021/07/08 05:24:25;;;;;;;10.48;9.40;;;;;;;18.59;77.65;97050.52;1625639;86;21085;-79
2021/07/08 05:26:52;;;;;;;10.15;9.23;;;;;;;18.67;77.56;97056.55;1638384;86;20934;-80
2021/07/08 05:29:18;;;;;;;10.72;9.63;;;;;;;18.74;77.72;97059.44;1639598;86;21435;-80
2021/07/08 05:31:44;;;;;;;11.75;10.60;;;;;;;18.83;77.69;97063.90;1641271;86;20987;-79
2021/07/08 05:34:09;;;;;;;11.57;10.38;;;;;;;18.90;77.42;97065.97;1614408;87;20987;-80
2021/07/08 05:36:35;;;;;;;13.80;9.90;;;;;;;18.95;77.53;97070.58;1640700;86;21039;-80
2021/07/08 05:39:01;;;;;;;11.33;10.23;;;;;;;18.96;77.01;97064.29;1640051;86;20971;-80
2021/07/08 05:41:27;;;;;;;12.10;10.35;;;;;;;19.02;77.10;97058.94;1629994;86;21034;-79
2021/07/08 05:43:53;;;;;;;11.33;10.13;;;;;;;19.12;77.43;97051.35;1638978;86;21092;-80
2021/07/08 05:46:19;;;;;;;13.53;12.18;;;;;;;19.23;77.51;97052.46;1644971;86;21019;-80
2021/07/08 05:48:45;;;;;;;12.68;11.63;;;;;;;19.29;77.24;97046.81;1652208;86;21035;-79
2021/07/08 05:51:12;;;;;;;12.58;11.48;;;;;;;19.36;77.29;97044.89;1640875;86;20955;-80
2021/07/08 05:53:38;;;;;;;12.35;11.00;;;;;;;19.38;76.96;97038.92;1640604;86;21956;-80
2021/07/08 05:56:05;;;;;;;10.98;9.58;;;;;;;19.36;76.92;97023.81;1656152;86;20970;-80
2021/07/08 05:58:31;;;;;;;11.43;10.43;;;;;;;19.31;76.87;97016.58;1646109;86;21332;-80
2021/07/08 06:00:58;;;;;;;12.55;11.25;;;;;;;19.30;77.05;97019.44;1641214;86;20983;-80
2021/07/08 06:03:24;;;;;;;12.20;11.00;;;;;;;19.28;77.24;97024.12;1637729;86;20935;-80
2021/07/08 06:05:50;;;;;;;11.65;10.20;;;;;;;19.26;77.47;97025.67;1640631;86;21026;-80
2021/07/08 06:08:17;;;;;;;10.93;9.93;;;;;;;19.26;77.80;97019.08;1645349;86;21007;-80
2021/07/08 06:10:43;;;;;;;10.40;9.38;;;;;;;19.33;77.64;97020.31;1640459;86;21256;-79
2021/07/08 06:13:10;;;;;;;10.90;9.70;;;;;;;19.39;77.82;97020.25;1654723;86;21106;-80
2021/07/08 06:15:36;;;;;;;16.05;10.95;;;;;;;19.42;77.67;97020.31;1647308;86;21162;-80
2021/07/08 06:18:03;;;;;;;13.62;12.07;;;;;;;19.47;77.83;97023.08;1654869;85;21825;-80
2021/07/08 06:20:30;;;;;;;12.93;10.50;;;;;;;19.51;78.28;97026.87;1673352;85;21023;-80
2021/07/08 06:22:55;;;;;;;11.60;10.35;;;;;;;19.57;77.97;97022.08;1653737;85;21020;-80
2021/07/08 06:25:22;;;;;;;13.15;10.53;;;;;;;19.61;77.90;97026.38;1652664;86;20952;-80
2021/07/08 06:27:49;;;;;;;14.80;11.12;;;;;;;19.68;77.86;97017.34;1650110;87;20964;-79
2021/07/08 06:30:16;;;;;;;13.90;11.90;;;;;;;19.75;77.73;97015.44;1654537;86;20955;-80
2021/07/08 06:32:43;;;;;;;12.73;11.40;;;;;;;19.86;77.78;97015.71;1657761;85;21320;-80
2021/07/08 06:35:09;;;;;;;13.10;11.30;;;;;;;19.97;78.08;97015.72;1664208;86;21007;-80
2021/07/08 06:37:36;;;;;;;13.32;11.45;;;;;;;20.03;77.91;97016.67;1652835;85;21028;-80
2021/07/08 06:40:03;;;;;;;14.93;10.58;;;;;;;20.08;78.04;97015.47;1664864;85;21035;-80
2021/07/08 06:42:29;;;;;;;15.53;11.88;;;;;;;20.11;77.60;97018.97;1618428;86;21041;-80
2021/07/08 06:44:55;;;;;;;14.40;11.83;;;;;;;20.15;77.48;97014.84;1635943;86;20940;-80
2021/07/08 06:47:21;;;;;;;17.73;11.22;;;;;;;20.17;77.44;97012.78;1653155;86;21013;-80
2021/07/08 06:49:47;;;;;;;16.02;11.90;;;;;;;20.25;78.18;97022.22;1640343;85;20945;-80
2021/07/08 06:52:15;;;;;;;13.28;11.10;;;;;;;20.30;77.90;97018.37;1652822;86;21023;-80
2021/07/08 06:54:40;;;;;;;10.25;9.25;;;;;;;20.36;77.69;97023.56;1644001;85;20937;-80
2021/07/08 06:57:06;;;;;;;11.78;10.55;;;;;;;20.35;77.54;97019.31;1650674;86;21040;-80
2021/07/08 06:59:32;;;;;;;10.65;9.55;;;;;;;20.36;77.37;97017.48;1631061;86;21008;-80
2021/07/08 07:01:59;;;;;;;11.15;9.53;;;;;;;20.34;77.55;97020.34;1645748;86;21351;-80
2021/07/08 07:04:24;;;;;;;11.22;10.18;;;;;;;20.38;78.07;97023.33;1640776;86;20968;-80
2021/07/08 07:06:50;;;;;;;10.95;9.85;;;;;;;20.45;78.21;97014.80;1651943;86;20916;-79
2021/07/08 07:09:16;;;;;;;10.70;9.60;;;;;;;20.57;78.40;97013.50;1653891;86;20979;-81
2021/07/08 07:11:42;;;;;;;12.33;11.03;;;;;;;20.73;77.89;97010.69;1636610;85;21276;-80
2021/07/08 07:14:08;;;;;;;11.93;10.82;;;;;;;20.90;77.48;97016.35;1652161;86;21027;-80
2021/07/08 07:16:33;;;;;;;12.98;11.60;;;;;;;21.08;77.40;97005.36;1661506;86;21052;-80
2021/07/08 07:19:00;;;;;;;11.70;10.38;;;;;;;21.14;77.12;97003.89;1632488;87;21371;-81
2021/07/08 07:21:26;;;;;;;13.70;10.32;;;;;;;21.28;77.34;97000.50;1643017;87;21280;-80
2021/07/08 07:23:52;;;;;;;13.83;10.50;;;;;;;21.38;77.19;96998.08;1623047;86;20989;-80
2021/07/08 07:26:21;;;;;;;11.53;10.32;;;;;;;21.42;75.89;96999.72;1639857;86;20996;-80
2021/07/08 07:28:45;;;;;;;14.50;9.88;;;;;;;21.39;75.34;96994.91;1615405;86;21377;-80
2021/07/08 07:31:12;;;;;;;10.75;9.65;;;;;;;21.39;75.42;97000.20;1626829;86;21023;-80
2021/07/08 07:33:38;;;;;;;12.85;10.15;;;;;;;21.41;75.78;96993.63;1657331;86;21288;-79
2021/07/08 07:36:04;;;;;;;10.25;9.03;;;;;;;21.47;75.90;96997.16;1657534;86;21034;-81
2021/07/08 07:38:30;;;;;;;11.60;10.20;;;;;;;21.51;75.87;96990.39;1612542;86;21217;-80
2021/07/08 07:40:56;;;;;;;10.35;9.15;;;;;;;21.50;75.95;96993.55;1626528;86;21056;-80
2021/07/08 07:43:22;;;;;;;13.45;10.50;;;;;;;21.57;74.90;96988.11;1635547;86;21411;-80
2021/07/08 07:45:49;;;;;;;12.13;9.48;;;;;;;21.56;75.42;96983.34;1635897;87;21022;-80
2021/07/08 07:48:15;;;;;;;11.85;9.90;;;;;;;21.65;76.04;96982.98;1653677;86;21061;-80
2021/07/08 07:50:42;;;;;;;10.18;7.95;;;;;;;21.70;75.42;96985.19;1596448;88;21065;-80
2021/07/08 07:53:08;;;;;;;10.93;8.50;;;;;;;21.75;75.94;96978.66;1610330;86;21363;-80
2021/07/08 07:55:33;;;;;;;8.90;7.47;;;;;;;21.81;75.35;96983.02;1632298;86;20951;-80
2021/07/08 07:58:01;;;;;;;10.80;7.90;;;;;;;21.86;76.17;96965.89;1655267;86;21014;-80
2021/07/08 08:00:28;;;;;;;12.95;9.33;;;;;;;21.96;76.27;96968.41;1640746;86;21028;-80
2021/07/08 08:02:54;;;;;;;10.50;8.88;;;;;;;22.03;75.08;96971.72;1640326;86;21043;-80
2021/07/08 08:05:23;;;;;;;10.78;9.10;;;;;;;22.11;75.21;96973.47;1640202;86;20979;-80
2021/07/08 08:10:33;;;;;;;11.12;8.85;;;;;;;22.13;74.98;96978.02;1639809;85;21401;-80
2021/07/08 08:12:59;;;;;;;12.93;9.15;;;;;;;22.14;74.01;96980.95;1641298;86;21079;-80
2021/07/08 08:15:25;;;;;;;8.80;7.90;;;;;;;22.19;74.22;96975.45;1635395;86;20983;-79
2021/07/08 08:17:51;;;;;;;11.38;10.13;;;;;;;22.29;75.29;96970.30;1627388;86;21402;-79
2021/07/08 08:20:16;;;;;;;10.48;9.10;;;;;;;22.40;74.88;96968.89;1634763;86;21442;-79
2021/07/08 08:22:43;;;;;;;9.85;8.58;;;;;;;22.53;74.70;96970.41;1632277;86;20999;-80
2021/07/08 08:25:11;;;;;;;11.38;9.33;;;;;;;22.69;74.18;96968.77;1636558;86;21009;-80
2021/07/08 08:27:37;;;;;;;13.35;10.68;;;;;;;22.77;74.15;96965.17;1640842;86;21315;-79
2021/07/08 08:30:05;;;;;;;12.90;10.15;;;;;;;22.82;72.67;96963.16;1636787;86;21022;-79
2021/07/08 08:32:31;;;;;;;11.35;8.95;;;;;;;22.85;73.45;96966.64;1639354;86;21005;-80
2021/07/08 08:34:57;;;;;;;14.23;11.08;;;;;;;22.91;73.84;96959.55;1658566;86;21015;-79
2021/07/08 08:37:23;;;;;;;11.70;10.50;;;;;;;23.09;72.45;96955.27;1640125;86;20999;-79
2021/07/08 08:39:48;;;;;;;11.20;9.63;;;;;;;23.27;73.52;96949.66;1661347;86;21303;-79
2021/07/08 08:42:14;;;;;;;13.98;10.23;;;;;;;23.53;73.10;96950.72;1633228;87;21248;-79
2021/07/08 08:44:40;;;;;;;11.80;9.03;;;;;;;23.67;73.00;96944.52;1657851;86;20930;-79
2021/07/08 08:47:12;;;;;;;11.83;9.90;;;;;;;23.79;72.79;96945.17;1649348;86;20919;-79
2021/07/08 08:49:39;;;;;;;11.12;9.40;;;;;;;23.94;71.76;96945.31;1665817;85;21241;-79
2021/07/08 08:52:07;;;;;;;12.58;8.68;;;;;;;24.15;71.92;96942.80;1615080;87;20985;-79
2021/07/08 08:54:34;;;;;;;11.22;9.00;;;;;;;24.28;71.47;96949.54;1640966;86;20961;-79
2021/07/08 08:57:01;;;;;;;12.65;8.83;;;;;;;24.38;70.39;96947.77;1613671;88;21393;-79
2021/07/08 08:59:27;;;;;;;11.83;8.05;;;;;;;24.51;69.96;96949.18;1644692;85;21027;-79
2021/07/08 09:02:15;;;;;;;11.18;9.28;;;;;;;24.61;70.36;96941.81;1649396;86;21003;-79
2021/07/08 09:04:41;;;;;;;9.28;8.33;;;;;;;24.70;69.75;96941.58;1622398;86;21303;-79
2021/07/08 09:07:30;;;;;;;9.53;7.33;;;;;;;24.82;70.39;96941.65;1618864;86;20971;-79
2021/07/08 09:10:00;;;;;;;10.05;7.47;;;;;;;24.94;70.85;96936.66;1629290;87;20972;-78
2021/07/08 09:12:26;;;;;;;8.75;7.47;;;;;;;25.02;70.12;96937.51;1618981;88;21403;-78
2021/07/08 09:15:14;;;;;;;9.28;8.10;;;;;;;25.14;67.02;96935.44;1636485;86;21352;-79
2021/07/08 09:17:41;;;;;;;10.03;8.40;;;;;;;25.20;69.16;96933.58;1637068;86;21079;-80
2021/07/08 09:20:09;;;;;;;8.93;8.00;;;;;;;25.31;69.10;96933.36;1659497;86;21040;-80
2021/07/08 09:22:35;;;;;;;10.70;8.93;;;;;;;25.41;68.68;96928.07;1637733;86;21015;-80
2021/07/08 09:25:25;;;;;;;11.20;7.80;;;;;;;25.46;67.22;96931.80;1633137;86;20981;-81
2021/07/08 09:28:12;;;;;;;12.40;8.63;;;;;;;25.52;68.53;96926.21;1613610;86;20951;-81
2021/07/08 09:30:39;;;;;;;9.95;7.53;;;;;;;25.59;67.47;96929.44;1635571;86;21033;-80
2021/07/08 09:33:31;;;;;;;12.63;8.38;;;;;;;25.73;67.86;96927.89;1625790;86;21362;-80
2021/07/08 09:36:08;;;;;;;10.30;7.95;;;;;;;25.83;67.42;96924.95;1647888;86;21022;-80
2021/07/08 09:38:34;;;;;;;9.70;8.15;;;;;;;25.92;67.35;96926.83;1633486;86;21003;-80
2021/07/08 09:41:11;;;;;;;11.68;9.00;;;;;;;25.95;66.61;96924.96;1625429;86;21034;-81
2021/07/08 09:43:38;;;;;;;10.35;8.98;;;;;;;26.11;66.26;96929.75;1631558;86;21056;-81
2021/07/08 09:46:06;;;;;;;10.20;7.78;;;;;;;26.20;64.70;96926.03;1637602;86;20959;-80
2021/07/08 09:48:31;;;;;;;10.32;9.40;;;;;;;26.15;63.29;96907.37;1627611;86;20954;-81
2021/07/08 09:50:57;;;;;;;10.90;9.30;;;;;;;26.15;63.29;96907.37;1622854;86;21237;-81
2021/07/08 09:53:25;;;;;;;11.68;8.98;;;;;;;26.12;64.08;96914.56;1638698;86;21063;-81
2021/07/08 09:56:00;;;;;;;9.03;7.22;;;;;;;26.22;64.14;96911.91;1635725;86;21063;-81
2021/07/08 09:58:26;;;;;;;10.05;8.30;;;;;;;26.24;64.48;96914.56;1647836;86;21344;-80
2021/07/08 10:00:51;;;;;;;9.48;7.90;;;;;;;26.38;66.24;96915.38;1618852;87;21019;-80
2021/07/08 10:03:18;;;;;;;9.35;8.25;;;;;;;26.56;65.55;96904.14;1634945;86;21038;-81
2021/07/08 10:05:43;;;;;;;10.72;8.30;;;;;;;26.62;64.53;96918.50;1622281;86;21051;-81
2021/07/08 10:08:10;;;;;;;9.65;8.63;;;;;;;26.69;62.54;96915.56;1637807;86;20936;-81
2021/07/08 10:10:40;;;;;;;9.45;8.35;;;;;;;26.68;63.87;96913.14;1635594;86;22259;-81
2021/07/08 10:13:07;;;;;;;9.15;8.25;;;;;;;26.79;64.31;96904.84;1637839;86;21003;-81
2021/07/08 10:15:37;;;;;;;9.30;8.38;;;;;;;26.84;63.96;96902.69;1644207;86;21001;-81
2021/07/08 10:18:04;;;;;;;10.23;8.58;;;;;;;26.77;63.15;96914.98;1623636;86;21759;-81
2021/07/08 10:20:31;;;;;;;9.33;8.38;;;;;;;26.58;62.93;96916.12;1636518;86;21092;-81
2021/07/08 10:22:58;;;;;;;9.73;7.90;;;;;;;26.55;64.89;96922.53;1647697;86;20982;-81
2021/07/08 10:25:25;;;;;;;10.30;8.23;;;;;;;26.78;63.24;96909.13;1645266;86;21031;-81
2021/07/08 10:27:51;;;;;;;9.18;8.23;;;;;;;26.99;63.71;96906.63;1621664;87;20942;-81
2021/07/08 10:30:20;;;;;;;10.03;7.92;;;;;;;27.18;64.34;96898.31;1601461;86;21573;-81
2021/07/08 10:32:45;;;;;;;10.00;9.03;;;;;;;27.42;64.64;96898.43;1624279;86;21013;-81
2021/07/08 10:35:11;;;;;;;14.83;8.10;;;;;;;27.56;64.39;96907.16;1586411;88;20990;-80
2021/07/08 10:37:40;;;;;;;9.83;8.83;;;;;;;27.58;63.34;96899.13;1623605;86;21004;-80
2021/07/08 10:40:08;;;;;;;11.90;8.40;;;;;;;27.56;64.17;96891.94;1651511;86;20999;-81
2021/07/08 10:42:49;;;;;;;12.35;8.70;;;;;;;27.47;62.89;96890.38;1640545;86;20981;-80
2021/07/08 10:45:39;;;;;;;13.65;8.88;;;;;;;27.38;64.04;96881.92;1597134;87;21015;-81
2021/07/08 10:48:15;;;;;;;9.40;8.43;;;;;;;27.44;64.87;96880.27;1626666;86;21011;-81
2021/07/08 10:50:51;;;;;;;8.78;7.78;;;;;;;27.54;64.78;96871.95;1623350;86;21003;-81
2021/07/08 10:53:33;;;;;;;8.65;7.67;;;;;;;27.56;64.42;96867.92;1635018;87;21055;-81
2021/07/08 10:56:03;;;;;;;8.63;7.40;;;;;;;27.72;64.10;96866.75;1650021;86;21084;-81
2021/07/08 10:58:51;;;;;;;9.35;8.13;;;;;;;27.91;63.07;96860.19;1633800;86;20995;-80
2021/07/08 11:01:39;;;;;;;8.78;7.60;;;;;;;27.96;64.48;96859.33;1618386;86;20932;-81
2021/07/08 11:04:05;;;;;;;8.90;7.80;;;;;;;27.95;63.53;96851.86;1635100;86;20999;-81
2021/07/08 11:06:35;;;;;;;7.87;7.17;;;;;;;27.91;63.11;96852.71;1614147;86;21007;-81
2021/07/08 11:09:08;;;;;;;10.00;8.03;;;;;;;27.76;62.67;96849.63;1607736;86;20993;-81
2021/07/08 11:11:43;;;;;;;10.00;7.47;;;;;;;27.68;62.53;96851.05;1610851;86;20998;-81
2021/07/08 11:14:15;;;;;;;8.30;6.60;;;;;;;27.72;63.81;96858.75;1635643;87;21047;-80
2021/07/08 11:16:59;;;;;;;8.83;7.08;;;;;;;27.90;62.83;96853.80;1640217;86;21010;-81
2021/07/08 11:19:31;;;;;;;8.63;7.62;;;;;;;27.91;62.99;96846.83;1656241;86;20988;-81
2021/07/08 11:22:09;;;;;;;7.75;7.05;;;;;;;28.00;63.98;96847.83;1627925;86;20979;-81
2021/07/08 11:24:45;;;;;;;8.80;7.83;;;;;;;28.09;63.47;96836.77;1629040;86;21015;-81
2021/07/08 11:27:26;;;;;;;8.45;6.85;;;;;;;28.22;64.10;96836.64;1619171;87;20995;-81
2021/07/08 11:29:58;;;;;;;8.55;6.97;;;;;;;28.27;63.21;96833.14;1640576;87;21086;-81
2021/07/08 11:32:29;;;;;;;7.37;6.67;;;;;;;28.31;63.20;96829.64;1643691;86;21014;-80
2021/07/08 11:35:16;;;;;;;;;;;;;;;28.37;63.49;96821.81;1619568;87;20956;-81